createdAt,value
2018-05-24T00:01:54.905Z,2.30
2018-05-24T00:04:27.489Z,2.20
2018-05-24T00:07:00.083Z,2.10
2018-05-24T00:09:32.651Z,2.15
2018-05-24T00:12:05.273Z,2.00
2018-05-24T00:14:37.824Z,2.33
2018-05-24T00:17:10.394Z,2.05
2018-05-24T00:19:42.975Z,2.30
2018-05-24T00:22:15.578Z,2.03
2018-05-24T00:24:48.145Z,2.15
2018-05-24T00:27:20.727Z,1.80
2018-05-24T00:29:53.284Z,2.10
2018-05-24T00:32:25.919Z,1.98
2018-05-24T00:34:58.469Z,2.30
2018-05-24T00:37:31.050Z,2.10
2018-05-24T00:40:03.614Z,1.98
2018-05-24T00:42:36.191Z,1.98
2018-05-24T00:45:08.741Z,1.92
2018-05-24T00:47:41.385Z,1.90
2018-05-24T00:50:13.928Z,1.92
2018-05-24T00:52:46.533Z,2.10
2018-05-24T00:55:30.928Z,2.30
2018-05-24T00:58:03.491Z,2.08
2018-05-24T01:00:36.075Z,2.10
2018-05-24T01:03:08.639Z,2.10
2018-05-24T01:05:41.245Z,2.00
2018-05-24T01:08:13.847Z,1.83
2018-05-24T01:10:46.441Z,1.98
2018-05-24T01:13:19.021Z,2.12
2018-05-24T01:15:51.742Z,1.75
2018-05-24T01:18:24.288Z,2.40
2018-05-24T01:20:56.888Z,2.22
2018-05-24T01:23:29.471Z,1.90
2018-05-24T01:26:02.072Z,1.90
2018-05-24T01:28:34.644Z,2.40
2018-05-24T01:31:07.253Z,1.80
2018-05-24T01:33:39.825Z,1.95
2018-05-24T01:36:12.406Z,2.33
2018-05-24T01:38:45.030Z,1.90
2018-05-24T01:41:17.610Z,1.80
2018-05-24T01:43:50.185Z,2.00
2018-05-24T01:46:22.781Z,2.17
2018-05-24T01:48:55.355Z,1.73
2018-05-24T01:51:27.948Z,2.20
2018-05-24T01:54:00.519Z,2.15
2018-05-24T01:56:33.110Z,2.10
2018-05-24T01:59:05.709Z,1.92
2018-05-24T02:01:38.314Z,2.05
2018-05-24T02:04:10.886Z,2.25
2018-05-24T02:06:43.464Z,1.87
2018-05-24T02:09:16.044Z,2.10
2018-05-24T02:11:48.650Z,2.20
2018-05-24T02:14:21.206Z,1.97
2018-05-24T02:16:53.784Z,2.20
2018-05-24T02:19:26.428Z,1.80
2018-05-24T02:21:59.035Z,1.85
2018-05-24T02:24:31.618Z,2.57
2018-05-24T02:27:04.264Z,2.30
2018-05-24T02:29:36.847Z,2.17
2018-05-24T02:32:09.439Z,2.00
2018-05-24T02:34:42.011Z,1.90
2018-05-24T02:37:14.640Z,2.37
2018-05-24T02:39:47.216Z,2.20
2018-05-24T02:42:19.824Z,2.03
2018-05-24T02:44:52.384Z,2.10
2018-05-24T02:47:24.959Z,2.30
2018-05-24T02:49:57.533Z,2.10
2018-05-24T02:52:30.899Z,2.00
2018-05-24T02:55:03.485Z,2.30
2018-05-24T02:57:36.916Z,2.10
2018-05-24T03:00:09.477Z,2.28
2018-05-24T03:02:42.107Z,2.23
2018-05-24T03:05:14.648Z,2.28
2018-05-24T03:07:47.246Z,2.40
2018-05-24T03:10:19.814Z,2.40
2018-05-24T03:12:52.385Z,2.03
2018-05-24T03:15:24.935Z,1.90
2018-05-24T03:17:57.513Z,2.20
2018-05-24T03:20:30.101Z,2.10
2018-05-24T03:23:02.690Z,2.33
2018-05-24T03:25:35.300Z,2.37
2018-05-24T03:28:07.900Z,2.30
2018-05-24T03:30:40.458Z,2.53
2018-05-24T03:33:13.035Z,2.17
2018-05-24T03:35:45.573Z,2.12
2018-05-24T03:38:18.185Z,2.13
2018-05-24T03:40:50.787Z,2.10
2018-05-24T03:43:23.351Z,2.20
2018-05-24T03:45:55.907Z,2.22
2018-05-24T03:48:28.503Z,2.35
2018-05-24T03:51:01.063Z,2.25
2018-05-24T03:53:33.632Z,2.27
2018-05-24T03:56:06.180Z,2.50
2018-05-24T03:58:38.771Z,2.30
2018-05-24T04:01:23.183Z,2.40
2018-05-24T04:03:55.803Z,2.10
2018-05-24T04:06:28.346Z,2.80
2018-05-24T04:09:00.945Z,2.40
2018-05-24T04:11:33.514Z,2.33
2018-05-24T04:14:06.153Z,2.47
2018-05-24T04:16:38.724Z,2.23
2018-05-24T04:19:11.300Z,2.30
2018-05-24T04:21:43.897Z,2.25
2018-05-24T04:24:16.465Z,2.40
2018-05-24T04:26:49.031Z,2.30
2018-05-24T04:29:21.627Z,2.50
2018-05-24T04:31:54.203Z,2.67
2018-05-24T04:34:26.795Z,2.50
2018-05-24T04:36:59.338Z,2.28
2018-05-24T04:39:31.923Z,2.40
2018-05-24T04:42:04.522Z,2.12
2018-05-24T04:49:30.665Z,2.17
2018-05-24T04:52:03.294Z,2.65
2018-05-24T04:54:35.822Z,2.35
2018-05-24T04:57:08.392Z,2.50
2018-05-24T04:59:40.988Z,2.62
2018-05-24T05:02:13.545Z,2.35
2018-05-24T05:04:46.120Z,2.60
2018-05-24T05:07:18.702Z,2.83
2018-05-24T05:09:51.266Z,2.47
2018-05-24T05:12:23.862Z,2.50
2018-05-24T05:14:56.457Z,2.70
2018-05-24T05:17:29.036Z,2.60
2018-05-24T05:20:01.607Z,3.10
2018-05-24T05:22:34.190Z,2.90
2018-05-24T05:25:06.852Z,3.12
2018-05-24T05:27:39.382Z,3.33
2018-05-24T05:30:11.947Z,3.55
2018-05-24T05:32:44.549Z,2.80
2018-05-24T05:35:17.126Z,3.58
2018-05-24T05:37:49.717Z,3.75
2018-05-24T05:40:22.274Z,3.50
2018-05-24T05:42:54.865Z,3.03
2018-05-24T05:45:27.406Z,3.55
2018-05-24T05:47:59.994Z,3.42
2018-05-24T05:50:32.555Z,3.40
2018-05-24T05:53:05.183Z,3.40
2018-05-24T05:55:37.747Z,3.42
2018-05-24T05:58:10.333Z,3.35
2018-05-24T06:00:42.906Z,3.53
2018-05-24T06:03:15.504Z,3.03
2018-05-24T06:05:48.070Z,3.03
2018-05-24T06:08:21.083Z,3.15
2018-05-24T06:10:53.634Z,3.28
2018-05-24T06:13:26.216Z,3.03
2018-05-24T06:15:58.770Z,3.47
2018-05-24T06:18:31.341Z,3.08
2018-05-24T06:21:03.927Z,3.30
2018-05-24T06:23:36.525Z,3.15
2018-05-24T06:26:09.272Z,3.12
2018-05-24T06:28:41.859Z,3.15
2018-05-24T06:31:14.395Z,3.45
2018-05-24T06:33:46.965Z,3.00
2018-05-24T06:36:19.562Z,3.28
2018-05-24T06:38:52.147Z,3.00
2018-05-24T06:41:24.692Z,3.30
2018-05-24T06:43:57.286Z,2.85
2018-05-24T06:46:29.871Z,3.30
2018-05-24T06:49:02.479Z,2.70
2018-05-24T06:51:35.176Z,2.58
2018-05-24T06:54:07.764Z,2.78
2018-05-24T06:56:40.334Z,2.92
2018-05-24T06:59:12.924Z,2.97
2018-05-24T07:01:45.486Z,2.87
2018-05-24T07:04:18.054Z,3.33
2018-05-24T07:06:50.624Z,3.10
2018-05-24T07:09:23.202Z,3.10
2018-05-24T07:11:55.757Z,2.60
2018-05-24T07:14:28.360Z,2.78
2018-05-24T07:17:00.943Z,2.42
2018-05-24T07:19:33.528Z,3.05
2018-05-24T07:22:06.099Z,2.90
2018-05-24T07:24:38.697Z,2.50
2018-05-24T07:27:11.272Z,2.55
2018-05-24T07:29:43.858Z,2.60
2018-05-24T07:32:16.443Z,2.78
2018-05-24T07:34:49.056Z,2.75
2018-05-24T07:37:21.606Z,3.33
2018-05-24T07:39:54.203Z,2.67
2018-05-24T07:42:26.775Z,2.90
2018-05-24T07:44:59.451Z,2.87
2018-05-24T07:47:31.989Z,2.80
2018-05-24T07:50:04.597Z,3.03
2018-05-24T07:52:37.148Z,2.58
2018-05-24T07:55:09.737Z,2.92
2018-05-24T07:57:42.322Z,2.80
2018-05-24T08:00:14.902Z,2.70
2018-05-24T08:02:47.469Z,2.62
2018-05-24T08:05:20.043Z,2.70
2018-05-24T08:07:52.597Z,2.70
2018-05-24T08:13:03.994Z,2.33
2018-05-24T08:15:36.790Z,2.78
2018-05-24T08:18:09.371Z,2.17
2018-05-24T08:20:41.974Z,2.70
2018-05-24T08:23:14.549Z,1.90
2018-05-24T08:25:47.161Z,2.25
2018-05-24T08:28:19.776Z,2.12
2018-05-24T08:30:52.382Z,2.30
2018-05-24T08:33:24.968Z,2.35
2018-05-24T08:35:57.550Z,2.28
2018-05-24T08:38:30.126Z,2.05
2018-05-24T08:41:02.716Z,2.00
2018-05-24T08:43:35.384Z,2.03
2018-05-24T08:46:07.952Z,2.45
2018-05-24T08:48:40.539Z,2.28
2018-05-24T08:51:13.103Z,2.10
2018-05-24T08:53:45.728Z,2.20
2018-05-24T08:56:18.319Z,1.83
2018-05-24T08:58:50.914Z,2.10
2018-05-24T09:01:23.566Z,2.28
2018-05-24T09:03:56.155Z,2.60
2018-05-24T09:06:28.783Z,2.08
2018-05-24T09:09:01.425Z,2.30
2018-05-24T09:11:33.947Z,2.20
2018-05-24T09:14:06.539Z,2.25
2018-05-24T09:16:39.073Z,2.50
2018-05-24T09:19:11.758Z,2.05
2018-05-24T09:21:44.564Z,2.40
2018-05-24T09:24:17.155Z,2.40
2018-05-24T09:26:49.733Z,2.33
2018-05-24T09:29:22.349Z,2.28
2018-05-24T09:31:54.925Z,2.60
2018-05-24T09:34:27.513Z,2.42
2018-05-24T09:37:00.059Z,2.40
2018-05-24T09:39:32.656Z,2.30
2018-05-24T09:42:05.292Z,2.30
2018-05-24T09:44:37.774Z,2.40
2018-05-24T09:47:10.333Z,2.10
2018-05-24T09:49:42.909Z,2.20
2018-05-24T09:52:15.471Z,2.37
2018-05-24T09:54:48.115Z,2.50
2018-05-24T09:57:20.663Z,2.10
2018-05-24T09:59:53.226Z,1.87
2018-05-24T10:02:25.836Z,2.20
2018-05-24T10:04:58.419Z,2.42
2018-05-24T10:07:30.971Z,2.30
2018-05-24T10:10:03.533Z,2.17
2018-05-24T10:12:36.139Z,2.25
2018-05-24T10:15:08.701Z,2.20
2018-05-24T10:17:41.297Z,2.45
2018-05-24T10:20:13.878Z,2.33
2018-05-24T10:22:46.452Z,2.33
2018-05-24T10:25:19.064Z,2.28
2018-05-24T10:27:51.611Z,2.15
2018-05-24T10:30:24.202Z,2.50
2018-05-24T10:32:56.740Z,2.50
2018-05-24T10:35:29.355Z,2.37
2018-05-24T10:38:01.941Z,2.22
2018-05-24T10:40:34.478Z,2.33
2018-05-24T10:43:07.067Z,2.60
2018-05-24T10:45:39.629Z,2.40
2018-05-24T10:48:12.190Z,2.47
2018-05-24T10:50:44.811Z,2.28
2018-05-24T10:53:17.372Z,2.45
2018-05-24T10:55:49.974Z,2.37
2018-05-24T10:58:22.580Z,2.75
2018-05-24T11:00:55.162Z,2.28
2018-05-24T11:03:27.814Z,2.35
2018-05-24T11:06:00.378Z,2.28
2018-05-24T11:08:32.969Z,2.20
2018-05-24T11:11:05.561Z,2.47
2018-05-24T11:13:38.114Z,2.28
2018-05-24T11:16:10.707Z,2.42
2018-05-24T11:18:43.318Z,2.70
2018-05-24T11:21:15.916Z,2.40
2018-05-24T11:23:48.471Z,2.53
2018-05-24T11:26:21.031Z,2.20
2018-05-24T11:28:53.574Z,2.33
2018-05-24T11:31:26.206Z,2.15
2018-05-24T11:33:58.767Z,2.20
2018-05-24T11:36:31.341Z,1.92
2018-05-24T11:39:03.924Z,2.28
2018-05-24T11:41:37.488Z,2.33
2018-05-24T11:44:10.069Z,2.30
2018-05-24T11:46:42.644Z,2.65
2018-05-24T11:49:15.242Z,2.28
2018-05-24T11:51:47.817Z,1.80
2018-05-24T11:54:20.395Z,2.20
2018-05-24T11:56:52.983Z,2.00
2018-05-24T11:59:25.581Z,2.65
2018-05-24T12:01:58.114Z,2.20
2018-05-24T12:04:31.487Z,2.00
2018-05-24T12:07:04.115Z,2.12
2018-05-24T12:09:36.729Z,2.25
2018-05-24T12:12:09.256Z,2.17
2018-05-24T12:14:41.842Z,2.42
2018-05-24T12:17:14.408Z,2.45
2018-05-24T12:19:47.008Z,2.40
2018-05-24T12:24:58.449Z,2.12
2018-05-24T12:27:31.021Z,2.60
2018-05-24T12:30:03.630Z,2.50
2018-05-24T12:32:36.258Z,2.30
2018-05-24T12:35:08.848Z,2.50
2018-05-24T12:37:41.407Z,2.67
2018-05-24T12:40:13.992Z,2.37
2018-05-24T12:42:47.219Z,2.58
2018-05-24T12:45:19.813Z,2.25
2018-05-24T12:47:52.403Z,2.53
2018-05-24T12:50:24.994Z,2.50
2018-05-24T12:52:57.567Z,2.50
2018-05-24T12:55:30.241Z,2.33
2018-05-24T12:58:02.789Z,2.12
2018-05-24T13:00:35.378Z,2.42
2018-05-24T13:03:07.970Z,2.28
2018-05-24T13:05:40.565Z,2.40
2018-05-24T13:08:13.136Z,2.40
2018-05-24T13:10:45.714Z,2.00
2018-05-24T13:13:18.274Z,2.37
2018-05-24T13:15:50.880Z,2.00
2018-05-24T13:18:23.477Z,2.33
2018-05-24T13:20:56.111Z,2.12
2018-05-24T13:23:28.671Z,2.10
2018-05-24T13:26:02.032Z,2.30
2018-05-24T13:28:34.620Z,2.60
2018-05-24T13:31:07.208Z,2.97
2018-05-24T13:33:39.760Z,2.17
2018-05-24T13:36:12.389Z,2.33
2018-05-24T13:38:44.942Z,2.30
2018-05-24T13:41:17.542Z,1.87
2018-05-24T13:43:50.308Z,2.45
2018-05-24T13:46:22.921Z,2.55
2018-05-24T13:48:55.525Z,2.28
2018-05-24T13:51:28.149Z,2.20
2018-05-24T13:54:00.719Z,2.47
2018-05-24T13:56:33.305Z,2.20
2018-05-24T13:59:05.916Z,2.45
2018-05-24T14:01:38.519Z,2.20
2018-05-24T14:04:11.097Z,2.45
2018-05-24T14:06:43.679Z,2.85
2018-05-24T14:09:16.283Z,2.40
2018-05-24T14:11:48.878Z,2.17
2018-05-24T14:14:21.453Z,2.03
2018-05-24T14:16:54.036Z,2.40
2018-05-24T14:19:26.588Z,2.20
2018-05-24T14:21:59.162Z,2.33
2018-05-24T14:24:31.725Z,2.00
2018-05-24T14:27:04.322Z,2.53
2018-05-24T14:29:37.323Z,2.58
2018-05-24T14:32:09.892Z,2.60
2018-05-24T14:34:42.450Z,1.95
2018-05-24T14:37:15.059Z,2.40
2018-05-24T14:39:47.676Z,3.25
2018-05-24T14:42:20.238Z,2.42
2018-05-24T14:44:52.841Z,2.50
2018-05-24T14:47:25.446Z,2.25
2018-05-24T14:49:57.982Z,2.47
2018-05-24T14:52:30.529Z,2.25
2018-05-24T14:55:03.853Z,2.42
2018-05-24T14:57:36.915Z,2.50
2018-05-24T15:00:09.541Z,2.17
2018-05-24T15:02:42.105Z,2.65
2018-05-24T15:05:14.677Z,2.50
2018-05-24T15:07:47.265Z,2.30
2018-05-24T15:10:19.823Z,2.58
2018-05-24T15:12:52.397Z,2.30
2018-05-24T15:15:25.298Z,2.45
2018-05-24T15:17:58.110Z,2.45
2018-05-24T15:20:30.712Z,2.40
2018-05-24T15:23:03.298Z,2.47
2018-05-24T15:25:35.910Z,2.45
2018-05-24T15:28:08.525Z,2.55
2018-05-24T15:30:41.168Z,2.50
2018-05-24T15:33:13.747Z,2.37
2018-05-24T15:35:46.356Z,2.22
2018-05-24T15:38:18.933Z,2.25
2018-05-24T15:40:51.539Z,2.33
2018-05-24T15:43:24.090Z,2.72
2018-05-24T15:45:56.667Z,2.40
2018-05-24T15:48:29.184Z,2.33
2018-05-24T15:51:01.834Z,2.30
2018-05-24T15:53:34.610Z,2.00
2018-05-24T15:56:07.730Z,2.00
2018-05-24T15:58:40.786Z,2.28
2018-05-24T16:01:13.434Z,2.20
2018-05-24T16:03:46.387Z,2.60
2018-05-24T16:06:19.008Z,2.35
2018-05-24T16:08:52.011Z,2.20
2018-05-24T16:11:24.621Z,2.10
2018-05-24T16:13:57.178Z,2.25
2018-05-24T16:16:29.754Z,2.20
2018-05-24T16:19:02.325Z,2.30
2018-05-24T16:21:35.521Z,2.40
2018-05-24T16:24:08.096Z,2.40
2018-05-24T16:26:40.889Z,2.22
2018-05-24T16:29:13.453Z,2.17
2018-05-24T16:31:46.101Z,2.10
2018-05-24T16:34:18.689Z,2.22
2018-05-24T16:36:51.274Z,2.25
2018-05-24T16:39:23.864Z,1.92
2018-05-24T16:41:56.444Z,2.17
2018-05-24T16:44:29.218Z,2.33
2018-05-24T16:47:01.868Z,2.33
2018-05-24T16:49:34.449Z,2.12
2018-05-24T16:52:07.026Z,2.55
2018-05-24T16:54:39.662Z,2.40
2018-05-24T16:57:12.248Z,2.30
2018-05-24T16:59:45.557Z,2.40
2018-05-24T17:02:18.609Z,2.10
2018-05-24T17:04:51.910Z,2.10
2018-05-24T17:07:24.990Z,2.15
2018-05-24T17:09:57.592Z,2.10
2018-05-24T17:12:30.492Z,2.72
2018-05-24T17:15:03.078Z,2.15
2018-05-24T17:17:35.666Z,2.22
2018-05-24T17:20:08.217Z,2.37
2018-05-24T17:22:40.814Z,2.30
2018-05-24T17:25:13.739Z,2.25
2018-05-24T17:27:46.408Z,2.20
2018-05-24T17:30:19.059Z,2.22
2018-05-24T17:32:51.631Z,2.20
2018-05-24T17:35:24.199Z,2.15
2018-05-24T17:37:56.802Z,2.00
2018-05-24T17:40:29.343Z,2.00
2018-05-24T17:43:01.931Z,2.30
2018-05-24T17:45:34.928Z,2.40
2018-05-24T17:48:07.976Z,2.20
2018-05-24T17:50:40.543Z,2.50
2018-05-24T17:53:13.139Z,2.53
2018-05-24T17:55:45.987Z,2.28
2018-05-24T17:58:18.842Z,2.20
2018-05-24T18:00:51.507Z,2.37
2018-05-24T18:03:24.128Z,2.55
2018-05-24T18:05:56.866Z,2.22
2018-05-24T18:08:29.439Z,2.00
2018-05-24T18:11:02.099Z,2.37
2018-05-24T18:13:34.953Z,2.47
2018-05-24T18:16:07.750Z,2.50
2018-05-24T18:18:40.822Z,2.47
2018-05-24T18:21:13.674Z,2.25
2018-05-24T18:23:46.416Z,2.37
2018-05-24T18:26:19.322Z,2.62
2018-05-24T18:28:51.923Z,2.62
2018-05-24T18:31:24.482Z,2.40
2018-05-24T18:33:57.071Z,2.75
2018-05-24T18:36:29.807Z,2.37
2018-05-24T18:39:02.758Z,2.50
2018-05-24T18:41:35.605Z,2.70
2018-05-24T18:44:08.313Z,2.12
2018-05-24T18:46:40.856Z,2.50
2018-05-24T18:49:13.398Z,2.65
2018-05-24T18:51:45.964Z,2.28
2018-05-24T18:54:18.525Z,2.60
2018-05-24T18:56:51.071Z,2.70
2018-05-24T18:59:23.642Z,2.45
2018-05-24T19:01:56.573Z,2.42
2018-05-24T19:04:29.585Z,2.42
2018-05-24T19:07:02.661Z,2.40
2018-05-24T19:09:35.209Z,2.58
2018-05-24T19:12:07.785Z,2.53
2018-05-24T19:14:40.359Z,2.35
2018-05-24T19:17:12.959Z,2.25
2018-05-24T19:19:45.519Z,2.10
2018-05-24T19:22:18.480Z,2.42
2018-05-24T19:24:51.249Z,2.30
2018-05-24T19:27:23.820Z,2.50
2018-05-24T19:29:56.657Z,2.80
2018-05-24T19:32:29.248Z,2.50
2018-05-24T19:35:01.787Z,2.72
2018-05-24T19:37:34.359Z,2.60
2018-05-24T19:40:06.928Z,2.28
2018-05-24T19:42:39.920Z,2.42
2018-05-24T19:45:12.477Z,2.42
2018-05-24T19:47:45.027Z,2.40
2018-05-24T19:50:17.882Z,2.35
2018-05-24T19:52:50.521Z,2.62
2018-05-24T19:55:23.151Z,3.00
2018-05-24T19:57:55.734Z,2.97
2018-05-24T20:00:28.298Z,2.60
2018-05-24T20:03:00.890Z,2.90
2018-05-24T20:05:33.465Z,2.75
2018-05-24T20:08:06.092Z,2.75
2018-05-24T20:10:38.648Z,3.00
2018-05-24T20:13:11.249Z,2.80
2018-05-24T20:15:43.815Z,2.70
2018-05-24T20:18:16.407Z,2.78
2018-05-24T20:20:48.961Z,2.55
2018-05-24T20:23:21.559Z,2.50
2018-05-24T20:25:54.141Z,2.60
2018-05-24T20:28:26.721Z,2.97
2018-05-24T20:30:59.315Z,3.00
2018-05-24T20:33:31.886Z,2.80
2018-05-24T20:36:04.475Z,2.78
2018-05-24T20:38:37.094Z,2.62
2018-05-24T20:41:09.786Z,2.85
2018-05-24T20:43:42.351Z,2.90
2018-05-24T20:46:14.935Z,2.60
2018-05-24T20:48:47.494Z,2.35
2018-05-24T20:51:20.034Z,2.40
2018-05-24T20:53:52.580Z,2.75
2018-05-24T20:56:25.140Z,2.50
2018-05-24T20:58:57.706Z,2.90
2018-05-24T21:01:30.244Z,2.65
2018-05-24T21:04:02.801Z,2.80
2018-05-24T21:06:35.363Z,2.72
2018-05-24T21:09:07.903Z,2.97
2018-05-24T21:11:40.433Z,2.70
2018-05-24T21:14:13.031Z,2.60
2018-05-24T21:16:45.584Z,2.78
2018-05-24T21:19:18.182Z,2.47
2018-05-24T21:21:50.696Z,2.37
2018-05-24T21:24:23.247Z,2.78
2018-05-24T21:26:55.807Z,2.58
2018-05-24T21:29:28.375Z,2.70
2018-05-24T21:32:00.915Z,2.33
2018-05-24T21:34:33.465Z,2.58
2018-05-24T21:37:06.014Z,2.50
2018-05-24T21:39:38.582Z,2.80
2018-05-24T21:42:11.133Z,2.78
2018-05-24T21:44:43.698Z,2.75
2018-05-24T21:47:16.290Z,3.22
2018-05-24T21:49:48.860Z,2.40
2018-05-24T21:52:21.414Z,2.60
2018-05-24T21:54:53.993Z,2.65
2018-05-24T21:57:26.560Z,2.70
2018-05-24T21:59:59.131Z,2.37
2018-05-24T22:02:31.737Z,2.58
2018-05-24T22:05:04.316Z,2.30
2018-05-24T22:07:36.890Z,2.60
2018-05-24T22:10:09.434Z,2.87
2018-05-24T22:12:42.011Z,2.97
2018-05-24T22:15:14.555Z,2.55
2018-05-24T22:17:47.129Z,2.67
2018-05-24T22:20:19.695Z,2.45
2018-05-24T22:22:52.271Z,2.30
2018-05-24T22:25:24.826Z,2.83
2018-05-24T22:27:57.419Z,2.78
2018-05-24T22:30:29.990Z,2.67
2018-05-24T22:33:02.571Z,2.45
2018-05-24T22:35:35.157Z,2.42
2018-05-24T22:38:07.775Z,2.50
2018-05-24T22:40:40.362Z,2.00
2018-05-24T22:43:12.965Z,2.95
2018-05-24T22:45:45.585Z,2.85
2018-05-24T22:48:18.220Z,2.53
2018-05-24T22:50:50.881Z,2.60
2018-05-24T22:53:23.548Z,2.70
2018-05-24T22:55:56.145Z,2.60
2018-05-24T22:58:28.765Z,2.35
2018-05-24T23:03:40.232Z,3.00
2018-05-24T23:06:12.778Z,3.20
2018-05-24T23:08:45.355Z,2.50
2018-05-24T23:11:17.936Z,3.17
2018-05-24T23:13:50.504Z,2.47
2018-05-24T23:16:23.079Z,2.58
2018-05-24T23:18:55.643Z,2.83
2018-05-24T23:21:28.194Z,2.47
2018-05-24T23:24:00.796Z,2.65
2018-05-24T23:26:33.346Z,2.70
2018-05-24T23:29:05.979Z,3.00
2018-05-24T23:31:38.530Z,2.45
2018-05-24T23:34:11.118Z,3.05
2018-05-24T23:36:43.662Z,2.75
2018-05-24T23:39:16.234Z,3.20
2018-05-24T23:41:48.762Z,3.05
2018-05-24T23:44:21.352Z,3.03
2018-05-24T23:46:53.901Z,2.80
2018-05-24T23:49:26.471Z,3.12
2018-05-24T23:51:59.003Z,3.22
2018-05-24T23:54:31.561Z,3.37
2018-05-24T23:57:04.129Z,3.05
2018-05-24T23:59:36.707Z,2.62
